createdAt,value
2023-01-28T00:00:09.391Z,0.25
2023-01-28T00:02:38.269Z,0.23
2023-01-28T00:05:08.405Z,0.29
2023-01-28T00:07:37.009Z,0.32
2023-01-28T00:10:08.083Z,0.27
2023-01-28T00:12:36.712Z,0.23
2023-01-28T00:15:06.635Z,0.25
2023-01-28T00:17:36.819Z,0.26
2023-01-28T00:20:06.060Z,0.27
2023-01-28T00:22:35.044Z,0.22
2023-01-28T00:25:03.571Z,0.22
2023-01-28T00:27:33.406Z,0.23
2023-01-28T00:30:02.145Z,0.22
2023-01-28T00:32:31.163Z,0.15
2023-01-28T00:34:59.872Z,0.14
2023-01-28T00:37:28.396Z,0.17
2023-01-28T00:39:56.772Z,0.16
2023-01-28T00:42:26.342Z,0.12
2023-01-28T00:44:58.990Z,0.03
2023-01-28T00:47:28.232Z,-0.01
2023-01-28T00:49:57.461Z,0.03
2023-01-28T00:52:26.113Z,0.05
2023-01-28T00:54:57.552Z,0.10
2023-01-28T00:57:27.952Z,0.01
2023-01-28T00:59:58.062Z,0.05
2023-01-28T01:02:27.308Z,0.07
2023-01-28T01:05:02.786Z,0.09
2023-01-28T01:07:42.241Z,0.10
2023-01-28T01:10:12.016Z,0.13
2023-01-28T01:12:41.449Z,0.14
2023-01-28T01:15:12.875Z,0.14
2023-01-28T01:17:44.245Z,0.13
2023-01-28T01:20:15.931Z,0.16
2023-01-28T01:22:44.795Z,0.12
2023-01-28T01:25:14.591Z,0.13
2023-01-28T01:27:45.345Z,0.16
2023-01-28T01:30:16.319Z,0.17
2023-01-28T01:32:44.998Z,0.09
2023-01-28T01:35:13.943Z,0.04
2023-01-28T01:37:52.514Z,-0.02
2023-01-28T01:40:21.560Z,0.04
2023-01-28T01:42:51.493Z,0.09
2023-01-28T01:45:22.332Z,0.00
2023-01-28T01:47:56.965Z,-0.06
2023-01-28T01:50:32.003Z,-0.07
2023-01-28T01:53:03.145Z,-0.05
2023-01-28T01:55:35.406Z,-0.04
2023-01-28T01:58:09.788Z,-0.08
2023-01-28T02:00:40.270Z,-0.09
2023-01-28T02:03:11.066Z,-0.06
2023-01-28T02:05:40.426Z,-0.18
2023-01-28T02:08:22.810Z,-0.19
2023-01-28T02:10:55.676Z,-0.16
2023-01-28T02:13:26.614Z,-0.19
2023-01-28T02:15:56.877Z,-0.18
2023-01-28T02:18:25.452Z,-0.20
2023-01-28T02:21:23.396Z,-0.14
2023-01-28T02:24:08.526Z,-0.15
2023-01-28T02:27:14.043Z,-0.15
2023-01-28T02:29:46.499Z,-0.17
2023-01-28T02:32:38.346Z,-0.18
2023-01-28T02:35:14.514Z,-0.11
2023-01-28T02:37:48.907Z,-0.17
2023-01-28T02:40:21.755Z,-0.14
2023-01-28T02:42:50.691Z,-0.28
2023-01-28T02:45:25.131Z,-0.30
2023-01-28T02:48:00.776Z,-0.26
2023-01-28T02:50:36.362Z,-0.31
2023-01-28T02:53:33.234Z,-0.26
2023-01-28T02:56:08.404Z,-0.23
2023-01-28T02:58:40.010Z,-0.22
2023-01-28T03:01:18.734Z,-0.21
2023-01-28T03:04:00.480Z,-0.23
2023-01-28T03:06:39.403Z,-0.23
2023-01-28T03:09:25.771Z,-0.20
2023-01-28T03:12:16.059Z,-0.16
2023-01-28T03:15:04.772Z,-0.19
2023-01-28T03:17:57.375Z,-0.15
2023-01-28T03:20:44.886Z,-0.14
2023-01-28T03:23:36.305Z,-0.13
2023-01-28T03:26:23.271Z,-0.12
2023-01-28T03:29:10.700Z,-0.12
2023-01-28T03:31:57.784Z,-0.13
2023-01-28T03:34:46.392Z,-0.24
2023-01-28T03:37:26.169Z,-0.17
2023-01-28T03:40:12.800Z,-0.16
2023-01-28T03:42:43.019Z,-0.14
2023-01-28T03:45:23.310Z,-0.13
2023-01-28T03:47:52.383Z,-0.12
2023-01-28T03:50:22.577Z,-0.08
2023-01-28T03:53:14.891Z,-0.13
2023-01-28T03:55:52.124Z,-0.08
2023-01-28T03:58:21.438Z,-0.10
2023-01-28T04:00:50.309Z,-0.10
2023-01-28T04:03:21.285Z,-0.09
2023-01-28T04:06:02.020Z,-0.16
2023-01-28T04:08:53.178Z,-0.11
2023-01-28T04:11:41.821Z,-0.05
2023-01-28T04:14:11.594Z,-0.06
2023-01-28T04:16:47.830Z,-0.08
2023-01-28T04:19:17.304Z,-0.09
2023-01-28T04:21:49.180Z,-0.09
2023-01-28T04:24:19.927Z,-0.11
2023-01-28T04:26:49.212Z,-0.09
2023-01-28T04:29:18.809Z,-0.11
2023-01-28T04:31:48.719Z,-0.28
2023-01-28T04:34:29.083Z,-0.24
2023-01-28T04:37:16.838Z,-0.32
2023-01-28T04:40:03.981Z,-0.23
2023-01-28T04:42:43.969Z,-0.15
2023-01-28T04:45:23.774Z,-0.10
2023-01-28T04:48:15.892Z,-0.14
2023-01-28T04:51:05.215Z,-0.12
2023-01-28T04:53:49.300Z,-0.05
2023-01-28T04:56:56.644Z,0.00
2023-01-28T04:59:25.792Z,-0.06
2023-01-28T05:01:54.516Z,-0.10
2023-01-28T05:04:23.575Z,-0.04
2023-01-28T05:06:53.945Z,-0.06
2023-01-28T05:09:29.762Z,-0.03
2023-01-28T05:11:59.042Z,0.03
2023-01-28T05:14:28.454Z,0.00
2023-01-28T05:17:03.391Z,0.04
2023-01-28T05:19:32.378Z,-0.03
2023-01-28T05:22:01.562Z,0.02
2023-01-28T05:24:39.302Z,-0.09
2023-01-28T05:27:23.129Z,-0.02
2023-01-28T05:29:52.738Z,0.04
2023-01-28T05:32:22.184Z,0.07
2023-01-28T05:34:58.815Z,0.10
2023-01-28T05:37:31.577Z,-0.01
2023-01-28T05:40:02.005Z,-0.06
2023-01-28T05:42:38.492Z,-0.13
2023-01-28T05:45:24.698Z,-0.12
2023-01-28T05:48:09.550Z,-0.19
2023-01-28T05:50:49.304Z,-0.13
2023-01-28T05:53:38.779Z,-0.01
2023-01-28T05:56:10.506Z,0.03
2023-01-28T05:58:40.737Z,0.06
2023-01-28T06:01:11.781Z,0.09
2023-01-28T06:03:46.119Z,0.06
2023-01-28T06:06:14.860Z,0.10
2023-01-28T06:08:43.433Z,0.14
2023-01-28T06:11:13.880Z,0.16
2023-01-28T06:13:45.222Z,0.20
2023-01-28T06:19:56.783Z,0.27
2023-01-28T06:22:25.859Z,0.29
2023-01-28T06:24:54.271Z,0.24
2023-01-28T06:27:27.850Z,0.26
2023-01-28T06:29:56.717Z,0.27
2023-01-28T06:32:25.837Z,0.31
2023-01-28T06:34:54.533Z,0.32
2023-01-28T06:37:27.834Z,0.32
2023-01-28T06:39:56.788Z,0.32
2023-01-28T06:42:25.680Z,0.31
2023-01-28T06:44:56.140Z,0.34
2023-01-28T06:47:27.899Z,0.31
2023-01-28T06:49:56.689Z,0.36
2023-01-28T06:52:25.992Z,0.34
2023-01-28T06:54:55.498Z,0.38
2023-01-28T06:57:24.805Z,0.25
2023-01-28T06:59:53.976Z,0.22
2023-01-28T07:02:26.555Z,0.27
2023-01-28T07:04:56.390Z,0.29
2023-01-28T07:07:25.498Z,0.21
2023-01-28T07:09:54.402Z,0.27
2023-01-28T07:12:26.038Z,0.27
2023-01-28T07:14:54.951Z,0.29
2023-01-28T07:17:25.251Z,0.33
2023-01-28T07:19:54.244Z,0.21
2023-01-28T07:22:30.724Z,0.24
2023-01-28T07:25:01.351Z,0.33
2023-01-28T07:27:29.929Z,0.37
2023-01-28T07:29:58.836Z,0.32
2023-01-28T07:32:29.771Z,0.40
2023-01-28T07:34:58.964Z,0.42
2023-01-28T07:37:27.965Z,0.44
2023-01-28T07:39:56.541Z,0.47
2023-01-28T07:42:25.742Z,0.46
2023-01-28T07:44:55.310Z,0.52
2023-01-28T07:47:24.333Z,0.56
2023-01-28T07:49:54.383Z,0.57
2023-01-28T07:52:23.764Z,0.60
2023-01-28T07:54:52.974Z,0.61
2023-01-28T07:57:24.515Z,0.59
2023-01-28T07:59:53.798Z,0.60
2023-01-28T08:02:22.812Z,0.53
2023-01-28T08:04:59.430Z,0.54
2023-01-28T08:07:29.596Z,0.51
2023-01-28T08:09:58.390Z,0.41
2023-01-28T08:12:27.072Z,0.48
2023-01-28T08:14:56.491Z,0.53
2023-01-28T08:17:27.976Z,0.53
2023-01-28T08:19:58.732Z,0.44
2023-01-28T08:22:27.767Z,0.45
2023-01-28T08:24:56.654Z,0.51
2023-01-28T08:27:25.972Z,0.50
2023-01-28T08:30:01.465Z,0.42
2023-01-28T08:32:31.365Z,0.34
2023-01-28T08:35:03.802Z,0.43
2023-01-28T08:37:32.990Z,0.33
2023-01-28T08:40:02.167Z,0.42
2023-01-28T08:42:31.130Z,0.49
2023-01-28T08:44:59.707Z,0.57
2023-01-28T08:47:28.334Z,0.58
2023-01-28T08:49:56.989Z,0.60
2023-01-28T08:52:27.135Z,0.59
2023-01-28T08:54:55.411Z,0.69
2023-01-28T08:57:24.011Z,0.66
2023-01-28T08:59:53.007Z,0.71
2023-01-28T09:02:31.154Z,0.48
2023-01-28T09:05:00.535Z,0.57
2023-01-28T09:07:30.451Z,0.58
2023-01-28T09:09:59.227Z,0.63
2023-01-28T09:12:28.130Z,0.71
2023-01-28T09:14:57.132Z,0.76
2023-01-28T09:17:26.438Z,0.79
2023-01-28T09:19:55.438Z,0.89
2023-01-28T09:22:24.826Z,0.82
2023-01-28T09:25:10.552Z,0.89
2023-01-28T09:27:39.793Z,0.82
2023-01-28T09:30:15.796Z,0.82
2023-01-28T09:32:45.257Z,0.91
2023-01-28T09:35:15.434Z,0.98
2023-01-28T09:37:44.085Z,0.93
2023-01-28T09:40:17.768Z,1.02
2023-01-28T09:42:59.553Z,1.09
2023-01-28T09:45:34.147Z,1.15
2023-01-28T09:48:03.448Z,1.12
2023-01-28T09:50:35.472Z,1.16
2023-01-28T09:53:10.036Z,1.26
2023-01-28T09:55:41.684Z,1.19
2023-01-28T09:58:12.649Z,1.22
2023-01-28T10:00:46.533Z,1.31
2023-01-28T10:03:45.602Z,1.31
2023-01-28T10:06:23.231Z,1.27
2023-01-28T10:09:11.239Z,1.38
2023-01-28T10:11:52.781Z,1.31
2023-01-28T10:14:33.814Z,1.22
2023-01-28T10:17:07.342Z,1.11
2023-01-28T10:19:48.572Z,1.17
2023-01-28T10:22:20.805Z,1.09
2023-01-28T10:24:52.548Z,1.18
2023-01-28T10:27:24.988Z,1.24
2023-01-28T10:29:55.569Z,1.27
2023-01-28T10:32:29.440Z,1.30
2023-01-28T10:34:59.805Z,1.30
2023-01-28T10:37:29.674Z,1.09
2023-01-28T10:39:59.985Z,1.16
2023-01-28T10:42:32.220Z,1.19
2023-01-28T10:45:02.770Z,1.09
2023-01-28T10:47:34.907Z,1.15
2023-01-28T10:50:04.866Z,1.23
2023-01-28T10:52:33.865Z,1.32
2023-01-28T10:55:07.454Z,1.38
2023-01-28T10:57:42.922Z,1.31
2023-01-28T11:00:24.971Z,1.39
2023-01-28T11:02:55.510Z,1.42
2023-01-28T11:05:27.487Z,1.39
2023-01-28T11:08:07.158Z,1.52
2023-01-28T11:10:37.686Z,1.42
2023-01-28T11:13:16.427Z,1.45
2023-01-28T11:15:48.479Z,1.42
2023-01-28T11:18:21.877Z,1.46
2023-01-28T11:20:53.160Z,1.47
2023-01-28T11:23:26.465Z,1.48
2023-01-28T11:26:08.501Z,1.47
2023-01-28T11:28:42.025Z,1.51
2023-01-28T11:31:13.524Z,1.53
2023-01-28T11:33:46.786Z,1.61
2023-01-28T11:36:17.291Z,1.68
2023-01-28T11:38:50.933Z,1.76
2023-01-28T11:41:20.934Z,1.76
2023-01-28T11:43:50.909Z,1.83
2023-01-28T11:46:45.406Z,1.78
2023-01-28T11:49:23.128Z,1.87
2023-01-28T11:51:56.164Z,1.92
2023-01-28T11:54:36.888Z,1.89
2023-01-28T11:57:24.830Z,1.89
2023-01-28T12:00:01.478Z,1.87
2023-01-28T12:02:51.852Z,1.82
2023-01-28T12:05:39.605Z,1.85
2023-01-28T12:08:12.406Z,1.90
2023-01-28T12:10:51.779Z,1.80
2023-01-28T12:13:30.955Z,1.79
2023-01-28T12:16:17.328Z,1.54
2023-01-28T12:19:19.849Z,1.53
2023-01-28T12:22:06.774Z,1.53
2023-01-28T12:24:47.407Z,1.58
2023-01-28T12:27:26.760Z,1.60
2023-01-28T12:30:03.626Z,1.71
2023-01-28T12:32:47.913Z,1.78
2023-01-28T12:35:26.219Z,1.82
2023-01-28T12:38:01.774Z,1.78
2023-01-28T12:40:51.236Z,1.77
2023-01-28T12:43:24.400Z,1.85
2023-01-28T12:45:56.595Z,1.87
2023-01-28T12:48:31.382Z,1.97
2023-01-28T12:51:04.627Z,1.84
2023-01-28T12:53:42.134Z,1.53
2023-01-28T12:56:15.673Z,1.45
2023-01-28T12:58:48.344Z,1.50
2023-01-28T13:01:20.441Z,1.65
2023-01-28T13:03:55.201Z,1.75
2023-01-28T13:06:32.246Z,1.85
2023-01-28T13:09:03.559Z,1.89
2023-01-28T13:11:36.373Z,1.98
2023-01-28T13:14:06.071Z,1.84
2023-01-28T13:16:37.941Z,1.93
2023-01-28T13:19:09.979Z,1.99
2023-01-28T13:21:48.594Z,1.90
2023-01-28T13:24:34.060Z,1.98
2023-01-28T13:27:14.518Z,1.66
2023-01-28T13:29:44.045Z,1.73
2023-01-28T13:32:33.975Z,1.85
2023-01-28T13:35:07.956Z,1.64
2023-01-28T13:38:02.854Z,1.71
2023-01-28T13:44:20.060Z,1.49
2023-01-28T13:46:49.433Z,1.48
2023-01-28T13:49:22.870Z,1.43
2023-01-28T13:52:00.471Z,1.54
2023-01-28T13:54:31.407Z,1.58
2023-01-28T13:57:26.721Z,1.67
2023-01-28T14:00:01.389Z,1.73
2023-01-28T14:02:42.831Z,1.78
2023-01-28T14:05:49.812Z,1.70
2023-01-28T14:08:46.790Z,1.79
2023-01-28T14:12:29.897Z,1.77
2023-01-28T14:15:26.315Z,1.61
2023-01-28T14:17:58.425Z,1.75
2023-01-28T14:20:28.796Z,1.74
2023-01-28T14:23:01.308Z,1.72
2023-01-28T14:25:38.492Z,1.67
2023-01-28T14:28:08.345Z,1.67
2023-01-28T14:30:46.552Z,1.66
2023-01-28T14:33:15.825Z,1.60
2023-01-28T14:35:49.097Z,1.69
2023-01-28T14:38:21.144Z,1.72
2023-01-28T14:40:53.142Z,1.71
2023-01-28T14:43:24.555Z,1.63
2023-01-28T14:46:06.542Z,1.53
2023-01-28T14:48:38.506Z,1.54
2023-01-28T14:51:23.573Z,1.58
2023-01-28T14:54:16.688Z,1.61
2023-01-28T14:57:06.942Z,1.65
2023-01-28T14:59:41.343Z,1.71
2023-01-28T15:02:19.919Z,1.73
2023-01-28T15:04:51.438Z,1.73
2023-01-28T15:07:23.213Z,1.64
2023-01-28T15:10:02.295Z,1.49
2023-01-28T15:12:36.476Z,1.43
2023-01-28T15:15:13.486Z,1.42
2023-01-28T15:17:42.542Z,1.45
2023-01-28T15:20:18.557Z,1.45
2023-01-28T15:22:47.607Z,1.45
2023-01-28T15:25:21.419Z,1.43
2023-01-28T15:27:54.101Z,1.34
2023-01-28T15:30:28.074Z,1.32
2023-01-28T15:33:05.753Z,1.39
2023-01-28T15:35:38.246Z,1.46
2023-01-28T15:38:07.956Z,1.34
2023-01-28T15:40:43.752Z,1.29
2023-01-28T15:43:22.834Z,1.34
2023-01-28T15:45:55.509Z,1.37
2023-01-28T15:48:25.332Z,1.36
2023-01-28T15:51:00.163Z,1.29
2023-01-28T15:53:32.323Z,1.13
2023-01-28T15:56:09.269Z,1.24
2023-01-28T15:58:41.817Z,1.26
2023-01-28T16:01:21.314Z,1.34
2023-01-28T16:04:02.527Z,1.46
2023-01-28T16:06:38.910Z,1.48
2023-01-28T16:09:15.853Z,1.52
2023-01-28T16:11:45.696Z,1.57
2023-01-28T16:14:25.443Z,1.56
2023-01-28T16:16:54.374Z,1.53
2023-01-28T16:19:32.014Z,1.57
2023-01-28T16:22:01.354Z,1.58
2023-01-28T16:24:32.510Z,1.33
2023-01-28T16:27:02.938Z,1.12
2023-01-28T16:29:33.477Z,0.99
2023-01-28T16:32:04.017Z,1.09
2023-01-28T16:34:32.681Z,1.22
2023-01-28T16:37:01.815Z,1.11
2023-01-28T16:39:31.202Z,1.00
2023-01-28T16:41:59.912Z,1.19
2023-01-28T16:44:28.339Z,1.16
2023-01-28T16:46:58.164Z,1.18
2023-01-28T16:49:26.736Z,1.27
2023-01-28T16:51:55.264Z,1.33
2023-01-28T16:54:24.223Z,1.37
2023-01-28T16:56:52.426Z,1.40
2023-01-28T16:59:20.602Z,1.45
2023-01-28T17:01:49.647Z,1.36
2023-01-28T17:04:20.126Z,1.39
2023-01-28T17:06:48.570Z,1.29
2023-01-28T17:09:17.485Z,1.38
2023-01-28T17:11:47.057Z,1.33
2023-01-28T17:14:23.016Z,1.23
2023-01-28T17:16:51.765Z,1.02
2023-01-28T17:19:22.875Z,1.21
2023-01-28T17:21:52.597Z,1.26
2023-01-28T17:24:24.440Z,0.90
2023-01-28T17:26:53.459Z,1.05
2023-01-28T17:29:22.220Z,1.20
2023-01-28T17:31:51.275Z,1.29
2023-01-28T17:34:20.178Z,1.36
2023-01-28T17:36:50.967Z,1.17
2023-01-28T17:39:19.651Z,1.07
2023-01-28T17:41:48.829Z,1.03
2023-01-28T17:44:17.489Z,0.95
2023-01-28T17:46:46.142Z,0.97
2023-01-28T17:49:14.495Z,0.92
2023-01-28T17:51:43.490Z,1.03
2023-01-28T17:54:13.470Z,1.10
2023-01-28T17:56:41.690Z,1.20
2023-01-28T17:59:11.764Z,1.21
2023-01-28T18:01:40.989Z,1.13
2023-01-28T18:04:10.587Z,0.77
2023-01-28T18:06:38.952Z,0.78
2023-01-28T18:09:07.281Z,0.81
2023-01-28T18:11:37.493Z,0.95
2023-01-28T18:14:06.386Z,1.01
2023-01-28T18:16:36.900Z,1.01
2023-01-28T18:19:06.805Z,1.07
2023-01-28T18:21:51.783Z,1.01
2023-01-28T18:24:21.297Z,1.06
2023-01-28T18:26:51.497Z,1.15
2023-01-28T18:29:20.951Z,1.11
2023-01-28T18:31:49.530Z,1.09
2023-01-28T18:34:18.912Z,1.08
2023-01-28T18:36:47.422Z,1.05
2023-01-28T18:39:15.767Z,0.94
2023-01-28T18:41:44.391Z,0.91
2023-01-28T18:44:15.307Z,0.94
2023-01-28T18:46:44.112Z,0.88
2023-01-28T18:49:12.859Z,0.92
2023-01-28T18:51:41.343Z,0.91
2023-01-28T18:54:13.076Z,1.02
2023-01-28T18:56:42.999Z,0.92
2023-01-28T18:59:14.635Z,0.89
2023-01-28T19:01:43.628Z,0.93
2023-01-28T19:04:12.199Z,0.91
2023-01-28T19:06:40.647Z,0.95
2023-01-28T19:09:11.899Z,1.01
2023-01-28T19:11:41.679Z,0.97
2023-01-28T19:14:10.976Z,0.95
2023-01-28T19:16:40.511Z,1.03
2023-01-28T19:19:09.548Z,1.07
2023-01-28T19:21:38.187Z,1.06
2023-01-28T19:24:09.866Z,1.12
2023-01-28T19:26:38.916Z,1.02
2023-01-28T19:29:09.383Z,1.04
2023-01-28T19:31:40.308Z,1.05
2023-01-28T19:34:09.911Z,1.06
2023-01-28T19:36:39.115Z,0.92
2023-01-28T19:39:08.882Z,1.08
2023-01-28T19:41:37.923Z,0.95
2023-01-28T19:44:07.787Z,1.06
2023-01-28T19:46:37.137Z,0.99
2023-01-28T19:49:07.091Z,1.03
2023-01-28T19:51:35.374Z,1.12
2023-01-28T19:54:03.807Z,1.18
2023-01-28T19:56:36.201Z,1.13
2023-01-28T19:59:04.838Z,1.14
2023-01-28T20:01:33.245Z,1.12
2023-01-28T20:04:02.347Z,1.21
2023-01-28T20:06:33.389Z,1.24
2023-01-28T20:09:04.107Z,1.25
2023-01-28T20:11:32.756Z,1.20
2023-01-28T20:14:01.333Z,1.21
2023-01-28T20:16:31.318Z,1.21
2023-01-28T20:19:00.919Z,1.21
2023-01-28T20:21:30.202Z,1.21
2023-01-28T20:24:01.603Z,1.18
2023-01-28T20:26:33.159Z,1.05
2023-01-28T20:29:02.424Z,1.12
2023-01-28T20:31:31.314Z,1.11
2023-01-28T20:34:00.364Z,1.12
2023-01-28T20:36:29.371Z,1.08
2023-01-28T20:38:59.704Z,0.88
2023-01-28T20:41:28.899Z,1.01
2023-01-28T20:43:57.813Z,1.02
2023-01-28T20:46:28.895Z,1.09
2023-01-28T20:48:59.237Z,1.06
2023-01-28T20:51:30.055Z,1.03
2023-01-28T20:54:01.436Z,1.10
2023-01-28T20:56:31.069Z,1.07
2023-01-28T20:59:01.260Z,1.11
2023-01-28T21:01:31.197Z,1.17
2023-01-28T21:03:59.624Z,1.20
2023-01-28T21:06:28.856Z,1.17
2023-01-28T21:08:59.488Z,1.16
2023-01-28T21:11:28.944Z,1.15
2023-01-28T21:13:57.761Z,1.17
2023-01-28T21:16:29.912Z,1.10
2023-01-28T21:18:58.711Z,1.03
2023-01-28T21:21:28.972Z,1.05
2023-01-28T21:24:01.860Z,1.11
2023-01-28T21:26:30.432Z,1.12
2023-01-28T21:28:59.289Z,1.13
2023-01-28T21:31:28.314Z,1.03
2023-01-28T21:33:58.863Z,1.03
2023-01-28T21:36:28.156Z,1.10
2023-01-28T21:38:58.680Z,1.13
2023-01-28T21:41:29.276Z,1.08
2023-01-28T21:43:58.531Z,1.10
2023-01-28T21:46:29.445Z,1.10
2023-01-28T21:48:59.264Z,1.08
2023-01-28T21:51:41.117Z,1.02
2023-01-28T21:54:13.697Z,0.98
2023-01-28T21:56:45.174Z,0.98
2023-01-28T21:59:31.321Z,0.97
2023-01-28T22:02:01.610Z,1.02
2023-01-28T22:04:32.818Z,1.06
2023-01-28T22:07:02.535Z,1.01
2023-01-28T22:09:32.217Z,1.01
2023-01-28T22:12:05.293Z,1.07
2023-01-28T22:14:34.702Z,1.04
2023-01-28T22:17:03.849Z,1.00
2023-01-28T22:19:32.618Z,1.02
2023-01-28T22:22:01.605Z,1.09
2023-01-28T22:24:30.745Z,1.15
2023-01-28T22:26:59.858Z,1.17
2023-01-28T22:29:30.329Z,1.19
2023-01-28T22:31:59.181Z,1.21
2023-01-28T22:34:28.097Z,1.13
2023-01-28T22:36:56.848Z,1.16
2023-01-28T22:39:25.788Z,1.08
2023-01-28T22:41:54.289Z,1.03
2023-01-28T22:44:23.483Z,0.97
2023-01-28T22:46:53.810Z,1.05
2023-01-28T22:49:22.999Z,1.08
2023-01-28T22:51:51.706Z,1.05
2023-01-28T22:54:20.250Z,1.09
2023-01-28T22:56:48.872Z,1.12
2023-01-28T22:59:17.747Z,1.05
2023-01-28T23:01:46.593Z,1.08
2023-01-28T23:04:16.577Z,1.02
2023-01-28T23:06:45.240Z,1.10
2023-01-28T23:09:13.647Z,1.07
2023-01-28T23:11:42.505Z,1.09
2023-01-28T23:14:28.968Z,1.08
2023-01-28T23:17:14.982Z,1.05
2023-01-28T23:20:04.137Z,1.12
2023-01-28T23:22:51.495Z,1.11
2023-01-28T23:25:21.417Z,1.15
2023-01-28T23:27:59.245Z,1.15
2023-01-28T23:30:27.902Z,1.08
2023-01-28T23:32:58.673Z,1.12
2023-01-28T23:35:31.124Z,1.12
2023-01-28T23:38:00.451Z,0.91
2023-01-28T23:40:29.578Z,0.89
2023-01-28T23:43:01.485Z,0.96
2023-01-28T23:45:29.994Z,0.90
2023-01-28T23:47:58.901Z,0.83
2023-01-28T23:50:28.766Z,0.90
2023-01-28T23:53:00.627Z,0.89
2023-01-28T23:55:29.357Z,0.87
2023-01-28T23:57:58.086Z,0.79
